<?xml version="1.0" encoding="UTF-8" standalone="no" ?>
<gpx xmlns="http://www.topografix.com/GPX/1/1" xmlns:xsi="http://www.w3.org/2001/XMLSchema-instance" xsi:schemaLocation="http://www.topografix.com/GPX/1/1 http://www.topografix.com/GPX/1/1/gpx.xsd" version="1.1" creator="VisuGPX - https://www.visugpx.com">
  <metadata>
    <name>Estaing </name>
  </metadata>
  <trk>
    <name><![CDATA[14243620-Estaing ]]></name>
    <trkseg>
      <trkpt lat="44.55353" lon="2.67183">
        <ele>319</ele>
        <time>2022-02-09T15:57:34Z</time>
      </trkpt>
      <trkpt lat="44.55244" lon="2.67209">
        <ele>316</ele>
        <time>2022-02-09T16:00:02Z</time>
      </trkpt>
      <trkpt lat="44.55244" lon="2.67226">
        <ele>317</ele>
        <time>2022-02-09T16:00:18Z</time>
      </trkpt>
      <trkpt lat="44.55232" lon="2.67231">
        <ele>319</ele>
        <time>2022-02-09T16:00:34Z</time>
      </trkpt>
      <trkpt lat="44.55223" lon="2.67286">
        <ele>327</ele>
        <time>2022-02-09T16:01:28Z</time>
      </trkpt>
      <trkpt lat="44.55178" lon="2.67286">
        <ele>341</ele>
        <time>2022-02-09T16:02:28Z</time>
      </trkpt>
      <trkpt lat="44.55101" lon="2.67261">
        <ele>360</ele>
        <time>2022-02-09T16:04:14Z</time>
      </trkpt>
      <trkpt lat="44.55039" lon="2.67231">
        <ele>366</ele>
        <time>2022-02-09T16:05:41Z</time>
      </trkpt>
      <trkpt lat="44.54988" lon="2.67252">
        <ele>386</ele>
        <time>2022-02-09T16:06:52Z</time>
      </trkpt>
      <trkpt lat="44.54917" lon="2.67336">
        <ele>419</ele>
        <time>2022-02-09T16:08:56Z</time>
      </trkpt>
      <trkpt lat="44.54709" lon="2.67396">
        <ele>444</ele>
        <time>2022-02-09T16:13:39Z</time>
      </trkpt>
      <trkpt lat="44.54624" lon="2.67407">
        <ele>459</ele>
        <time>2022-02-09T16:15:33Z</time>
      </trkpt>
      <trkpt lat="44.54622" lon="2.67419">
        <ele>462</ele>
        <time>2022-02-09T16:15:45Z</time>
      </trkpt>
      <trkpt lat="44.54589" lon="2.67393">
        <ele>464</ele>
        <time>2022-02-09T16:16:35Z</time>
      </trkpt>
      <trkpt lat="44.54524" lon="2.67277">
        <ele>470</ele>
        <time>2022-02-09T16:18:56Z</time>
      </trkpt>
      <trkpt lat="44.54452" lon="2.67128">
        <ele>468</ele>
        <time>2022-02-09T16:21:47Z</time>
      </trkpt>
      <trkpt lat="44.54379" lon="2.67032">
        <ele>464</ele>
        <time>2022-02-09T16:24:01Z</time>
      </trkpt>
      <trkpt lat="44.54376" lon="2.67001">
        <ele>465</ele>
        <time>2022-02-09T16:24:30Z</time>
      </trkpt>
      <trkpt lat="44.54384" lon="2.66923">
        <ele>470</ele>
        <time>2022-02-09T16:25:45Z</time>
      </trkpt>
      <trkpt lat="44.54364" lon="2.66849">
        <ele>475</ele>
        <time>2022-02-09T16:27:01Z</time>
      </trkpt>
      <trkpt lat="44.54336" lon="2.66826">
        <ele>481</ele>
        <time>2022-02-09T16:27:44Z</time>
      </trkpt>
      <trkpt lat="44.54309" lon="2.66796">
        <ele>484</ele>
        <time>2022-02-09T16:28:30Z</time>
      </trkpt>
      <trkpt lat="44.54281" lon="2.66778">
        <ele>490</ele>
        <time>2022-02-09T16:29:11Z</time>
      </trkpt>
      <trkpt lat="44.54265" lon="2.66759">
        <ele>496</ele>
        <time>2022-02-09T16:29:39Z</time>
      </trkpt>
      <trkpt lat="44.54251" lon="2.66708">
        <ele>501</ele>
        <time>2022-02-09T16:30:31Z</time>
      </trkpt>
      <trkpt lat="44.54251" lon="2.66641">
        <ele>503</ele>
        <time>2022-02-09T16:31:35Z</time>
      </trkpt>
      <trkpt lat="44.54239" lon="2.66603">
        <ele>507</ele>
        <time>2022-02-09T16:32:14Z</time>
      </trkpt>
      <trkpt lat="44.54234" lon="2.66527">
        <ele>512</ele>
        <time>2022-02-09T16:33:27Z</time>
      </trkpt>
      <trkpt lat="44.54219" lon="2.66435">
        <ele>517</ele>
        <time>2022-02-09T16:34:56Z</time>
      </trkpt>
      <trkpt lat="44.54207" lon="2.66405">
        <ele>519</ele>
        <time>2022-02-09T16:35:29Z</time>
      </trkpt>
      <trkpt lat="44.54186" lon="2.6638">
        <ele>521</ele>
        <time>2022-02-09T16:36:06Z</time>
      </trkpt>
      <trkpt lat="44.54137" lon="2.66333">
        <ele>525</ele>
        <time>2022-02-09T16:37:25Z</time>
      </trkpt>
      <trkpt lat="44.54111" lon="2.66282">
        <ele>525</ele>
        <time>2022-02-09T16:38:25Z</time>
      </trkpt>
      <trkpt lat="44.54087" lon="2.66245">
        <ele>529</ele>
        <time>2022-02-09T16:39:12Z</time>
      </trkpt>
      <trkpt lat="44.54075" lon="2.66209">
        <ele>528</ele>
        <time>2022-02-09T16:39:50Z</time>
      </trkpt>
      <trkpt lat="44.54066" lon="2.66151">
        <ele>527</ele>
        <time>2022-02-09T16:40:47Z</time>
      </trkpt>
      <trkpt lat="44.54054" lon="2.6611">
        <ele>528</ele>
        <time>2022-02-09T16:41:29Z</time>
      </trkpt>
      <trkpt lat="44.54033" lon="2.66108">
        <ele>530</ele>
        <time>2022-02-09T16:41:57Z</time>
      </trkpt>
      <trkpt lat="44.53996" lon="2.66087">
        <ele>534</ele>
        <time>2022-02-09T16:42:50Z</time>
      </trkpt>
      <trkpt lat="44.53953" lon="2.6601">
        <ele>539</ele>
        <time>2022-02-09T16:44:23Z</time>
      </trkpt>
      <trkpt lat="44.53914" lon="2.65966">
        <ele>542</ele>
        <time>2022-02-09T16:45:30Z</time>
      </trkpt>
      <trkpt lat="44.53883" lon="2.65918">
        <ele>543</ele>
        <time>2022-02-09T16:46:32Z</time>
      </trkpt>
      <trkpt lat="44.53873" lon="2.6588">
        <ele>543</ele>
        <time>2022-02-09T16:47:10Z</time>
      </trkpt>
      <trkpt lat="44.53877" lon="2.65838">
        <ele>544</ele>
        <time>2022-02-09T16:47:50Z</time>
      </trkpt>
      <trkpt lat="44.53893" lon="2.65801">
        <ele>546</ele>
        <time>2022-02-09T16:48:32Z</time>
      </trkpt>
      <trkpt lat="44.53914" lon="2.65691">
        <ele>550</ele>
        <time>2022-02-09T16:50:20Z</time>
      </trkpt>
      <trkpt lat="44.53919" lon="2.65643">
        <ele>552</ele>
        <time>2022-02-09T16:51:06Z</time>
      </trkpt>
      <trkpt lat="44.53937" lon="2.65565">
        <ele>555</ele>
        <time>2022-02-09T16:52:24Z</time>
      </trkpt>
      <trkpt lat="44.53935" lon="2.65491">
        <ele>558</ele>
        <time>2022-02-09T16:53:34Z</time>
      </trkpt>
      <trkpt lat="44.53947" lon="2.65449">
        <ele>559</ele>
        <time>2022-02-09T16:54:17Z</time>
      </trkpt>
      <trkpt lat="44.53946" lon="2.65386">
        <ele>559</ele>
        <time>2022-02-09T16:55:17Z</time>
      </trkpt>
      <trkpt lat="44.53923" lon="2.65285">
        <ele>557</ele>
        <time>2022-02-09T16:56:58Z</time>
      </trkpt>
      <trkpt lat="44.53894" lon="2.65203">
        <ele>554</ele>
        <time>2022-02-09T16:58:25Z</time>
      </trkpt>
      <trkpt lat="44.5385" lon="2.65026">
        <ele>548</ele>
        <time>2022-02-09T17:01:24Z</time>
      </trkpt>
      <trkpt lat="44.53842" lon="2.64976">
        <ele>548</ele>
        <time>2022-02-09T17:02:12Z</time>
      </trkpt>
      <trkpt lat="44.53858" lon="2.64903">
        <ele>546</ele>
        <time>2022-02-09T17:03:25Z</time>
      </trkpt>
      <trkpt lat="44.53852" lon="2.64864">
        <ele>546</ele>
        <time>2022-02-09T17:04:03Z</time>
      </trkpt>
      <trkpt lat="44.53846" lon="2.64841">
        <ele>546</ele>
        <time>2022-02-09T17:04:26Z</time>
      </trkpt>
      <trkpt lat="44.53869" lon="2.64785">
        <ele>545</ele>
        <time>2022-02-09T17:05:28Z</time>
      </trkpt>
      <trkpt lat="44.53891" lon="2.6476">
        <ele>544</ele>
        <time>2022-02-09T17:06:06Z</time>
      </trkpt>
      <trkpt lat="44.53912" lon="2.64745">
        <ele>544</ele>
        <time>2022-02-09T17:06:37Z</time>
      </trkpt>
      <trkpt lat="44.53923" lon="2.64723">
        <ele>543</ele>
        <time>2022-02-09T17:07:03Z</time>
      </trkpt>
      <trkpt lat="44.53932" lon="2.6471">
        <ele>543</ele>
        <time>2022-02-09T17:07:20Z</time>
      </trkpt>
      <trkpt lat="44.53945" lon="2.64706">
        <ele>541</ele>
        <time>2022-02-09T17:07:38Z</time>
      </trkpt>
      <trkpt lat="44.53992" lon="2.6468">
        <ele>540</ele>
        <time>2022-02-09T17:08:45Z</time>
      </trkpt>
      <trkpt lat="44.54039" lon="2.64679">
        <ele>534</ele>
        <time>2022-02-09T17:09:48Z</time>
      </trkpt>
      <trkpt lat="44.54091" lon="2.64626">
        <ele>535</ele>
        <time>2022-02-09T17:11:13Z</time>
      </trkpt>
      <trkpt lat="44.54109" lon="2.64565">
        <ele>538</ele>
        <time>2022-02-09T17:12:16Z</time>
      </trkpt>
      <trkpt lat="44.54133" lon="2.6451">
        <ele>535</ele>
        <time>2022-02-09T17:13:18Z</time>
      </trkpt>
      <trkpt lat="44.54128" lon="2.64487">
        <ele>535</ele>
        <time>2022-02-09T17:13:40Z</time>
      </trkpt>
      <trkpt lat="44.54093" lon="2.64439">
        <ele>537</ele>
        <time>2022-02-09T17:14:46Z</time>
      </trkpt>
      <trkpt lat="44.54082" lon="2.64393">
        <ele>532</ele>
        <time>2022-02-09T17:15:32Z</time>
      </trkpt>
      <trkpt lat="44.54082" lon="2.64373">
        <ele>528</ele>
        <time>2022-02-09T17:15:51Z</time>
      </trkpt>
      <trkpt lat="44.54095" lon="2.64345">
        <ele>522</ele>
        <time>2022-02-09T17:16:23Z</time>
      </trkpt>
      <trkpt lat="44.54146" lon="2.64327">
        <ele>514</ele>
        <time>2022-02-09T17:17:33Z</time>
      </trkpt>
      <trkpt lat="44.54159" lon="2.64298">
        <ele>512</ele>
        <time>2022-02-09T17:18:05Z</time>
      </trkpt>
      <trkpt lat="44.54168" lon="2.64298">
        <ele>511</ele>
        <time>2022-02-09T17:18:17Z</time>
      </trkpt>
      <trkpt lat="44.54196" lon="2.64216">
        <ele>509</ele>
        <time>2022-02-09T17:19:44Z</time>
      </trkpt>
      <trkpt lat="44.54197" lon="2.64181">
        <ele>509</ele>
        <time>2022-02-09T17:20:17Z</time>
      </trkpt>
      <trkpt lat="44.54177" lon="2.6415">
        <ele>507</ele>
        <time>2022-02-09T17:20:57Z</time>
      </trkpt>
      <trkpt lat="44.54174" lon="2.6413">
        <ele>506</ele>
        <time>2022-02-09T17:21:16Z</time>
      </trkpt>
      <trkpt lat="44.54198" lon="2.64092">
        <ele>507</ele>
        <time>2022-02-09T17:22:05Z</time>
      </trkpt>
      <trkpt lat="44.54217" lon="2.64075">
        <ele>509</ele>
        <time>2022-02-09T17:22:35Z</time>
      </trkpt>
      <trkpt lat="44.54236" lon="2.64065">
        <ele>512</ele>
        <time>2022-02-09T17:23:02Z</time>
      </trkpt>
      <trkpt lat="44.54289" lon="2.63959">
        <ele>518</ele>
        <time>2022-02-09T17:25:05Z</time>
      </trkpt>
      <trkpt lat="44.54348" lon="2.63901">
        <ele>525</ele>
        <time>2022-02-09T17:26:41Z</time>
      </trkpt>
      <trkpt lat="44.54356" lon="2.63881">
        <ele>528</ele>
        <time>2022-02-09T17:27:03Z</time>
      </trkpt>
      <trkpt lat="44.54357" lon="2.63823">
        <ele>530</ele>
        <time>2022-02-09T17:27:58Z</time>
      </trkpt>
      <trkpt lat="44.5437" lon="2.63791">
        <ele>531</ele>
        <time>2022-02-09T17:28:33Z</time>
      </trkpt>
      <trkpt lat="44.54409" lon="2.63764">
        <ele>539</ele>
        <time>2022-02-09T17:29:31Z</time>
      </trkpt>
      <trkpt lat="44.54444" lon="2.63764">
        <ele>544</ele>
        <time>2022-02-09T17:30:18Z</time>
      </trkpt>
      <trkpt lat="44.5445" lon="2.63745">
        <ele>544</ele>
        <time>2022-02-09T17:30:38Z</time>
      </trkpt>
      <trkpt lat="44.54456" lon="2.63685">
        <ele>542</ele>
        <time>2022-02-09T17:31:35Z</time>
      </trkpt>
      <trkpt lat="44.54471" lon="2.63656">
        <ele>544</ele>
        <time>2022-02-09T17:32:09Z</time>
      </trkpt>
      <trkpt lat="44.54482" lon="2.63651">
        <ele>546</ele>
        <time>2022-02-09T17:32:25Z</time>
      </trkpt>
      <trkpt lat="44.54518" lon="2.63545">
        <ele>547</ele>
        <time>2022-02-09T17:34:17Z</time>
      </trkpt>
      <trkpt lat="44.54534" lon="2.63526">
        <ele>547</ele>
        <time>2022-02-09T17:34:45Z</time>
      </trkpt>
      <trkpt lat="44.54572" lon="2.63532">
        <ele>548</ele>
        <time>2022-02-09T17:35:36Z</time>
      </trkpt>
      <trkpt lat="44.54603" lon="2.63507">
        <ele>549</ele>
        <time>2022-02-09T17:36:23Z</time>
      </trkpt>
      <trkpt lat="44.54635" lon="2.63489">
        <ele>548</ele>
        <time>2022-02-09T17:37:09Z</time>
      </trkpt>
      <trkpt lat="44.54685" lon="2.63535">
        <ele>547</ele>
        <time>2022-02-09T17:38:29Z</time>
      </trkpt>
      <trkpt lat="44.54736" lon="2.6367">
        <ele>538</ele>
        <time>2022-02-09T17:40:54Z</time>
      </trkpt>
      <trkpt lat="44.54738" lon="2.63722">
        <ele>532</ele>
        <time>2022-02-09T17:41:44Z</time>
      </trkpt>
      <trkpt lat="44.54747" lon="2.63733">
        <ele>530</ele>
        <time>2022-02-09T17:42:00Z</time>
      </trkpt>
      <trkpt lat="44.54761" lon="2.6374">
        <ele>527</ele>
        <time>2022-02-09T17:42:20Z</time>
      </trkpt>
      <trkpt lat="44.54761" lon="2.63757">
        <ele>526</ele>
        <time>2022-02-09T17:42:36Z</time>
      </trkpt>
      <trkpt lat="44.54745" lon="2.63775">
        <ele>528</ele>
        <time>2022-02-09T17:43:03Z</time>
      </trkpt>
      <trkpt lat="44.54743" lon="2.63806">
        <ele>528</ele>
        <time>2022-02-09T17:43:33Z</time>
      </trkpt>
      <trkpt lat="44.54766" lon="2.63851">
        <ele>527</ele>
        <time>2022-02-09T17:44:25Z</time>
      </trkpt>
      <trkpt lat="44.54796" lon="2.63874">
        <ele>526</ele>
        <time>2022-02-09T17:45:11Z</time>
      </trkpt>
      <trkpt lat="44.54853" lon="2.63883">
        <ele>526</ele>
        <time>2022-02-09T17:46:28Z</time>
      </trkpt>
      <trkpt lat="44.54897" lon="2.63864">
        <ele>528</ele>
        <time>2022-02-09T17:47:29Z</time>
      </trkpt>
      <trkpt lat="44.5494" lon="2.63834">
        <ele>529</ele>
        <time>2022-02-09T17:48:33Z</time>
      </trkpt>
      <trkpt lat="44.54987" lon="2.63798">
        <ele>533</ele>
        <time>2022-02-09T17:49:45Z</time>
      </trkpt>
      <trkpt lat="44.5501" lon="2.63784">
        <ele>535</ele>
        <time>2022-02-09T17:50:18Z</time>
      </trkpt>
      <trkpt lat="44.55069" lon="2.63796">
        <ele>544</ele>
        <time>2022-02-09T17:51:38Z</time>
      </trkpt>
      <trkpt lat="44.55111" lon="2.63815">
        <ele>550</ele>
        <time>2022-02-09T17:52:37Z</time>
      </trkpt>
      <trkpt lat="44.55161" lon="2.63834">
        <ele>555</ele>
        <time>2022-02-09T17:53:46Z</time>
      </trkpt>
      <trkpt lat="44.55205" lon="2.63869">
        <ele>556</ele>
        <time>2022-02-09T17:54:53Z</time>
      </trkpt>
      <trkpt lat="44.55239" lon="2.63893">
        <ele>557</ele>
        <time>2022-02-09T17:55:44Z</time>
      </trkpt>
      <trkpt lat="44.55269" lon="2.6392">
        <ele>557</ele>
        <time>2022-02-09T17:56:31Z</time>
      </trkpt>
      <trkpt lat="44.55276" lon="2.63982">
        <ele>558</ele>
        <time>2022-02-09T17:57:31Z</time>
      </trkpt>
      <trkpt lat="44.55274" lon="2.64018">
        <ele>559</ele>
        <time>2022-02-09T17:58:06Z</time>
      </trkpt>
      <trkpt lat="44.5528" lon="2.64051">
        <ele>559</ele>
        <time>2022-02-09T17:58:38Z</time>
      </trkpt>
      <trkpt lat="44.55289" lon="2.64082">
        <ele>559</ele>
        <time>2022-02-09T17:59:10Z</time>
      </trkpt>
      <trkpt lat="44.55309" lon="2.64108">
        <ele>560</ele>
        <time>2022-02-09T17:59:46Z</time>
      </trkpt>
      <trkpt lat="44.55383" lon="2.64217">
        <ele>560</ele>
        <time>2022-02-09T18:02:09Z</time>
      </trkpt>
      <trkpt lat="44.55415" lon="2.64257">
        <ele>560</ele>
        <time>2022-02-09T18:03:06Z</time>
      </trkpt>
      <trkpt lat="44.55431" lon="2.64258">
        <ele>560</ele>
        <time>2022-02-09T18:03:28Z</time>
      </trkpt>
      <trkpt lat="44.55445" lon="2.64289">
        <ele>559</ele>
        <time>2022-02-09T18:04:03Z</time>
      </trkpt>
      <trkpt lat="44.55468" lon="2.64417">
        <ele>559</ele>
        <time>2022-02-09T18:06:08Z</time>
      </trkpt>
      <trkpt lat="44.55484" lon="2.64482">
        <ele>559</ele>
        <time>2022-02-09T18:07:14Z</time>
      </trkpt>
      <trkpt lat="44.55479" lon="2.64552">
        <ele>558</ele>
        <time>2022-02-09T18:08:21Z</time>
      </trkpt>
      <trkpt lat="44.5547" lon="2.64608">
        <ele>557</ele>
        <time>2022-02-09T18:09:15Z</time>
      </trkpt>
      <trkpt lat="44.55471" lon="2.64644">
        <ele>555</ele>
        <time>2022-02-09T18:09:49Z</time>
      </trkpt>
      <trkpt lat="44.5545" lon="2.64673">
        <ele>555</ele>
        <time>2022-02-09T18:10:29Z</time>
      </trkpt>
      <trkpt lat="44.55442" lon="2.6471">
        <ele>554</ele>
        <time>2022-02-09T18:11:05Z</time>
      </trkpt>
      <trkpt lat="44.55437" lon="2.64751">
        <ele>553</ele>
        <time>2022-02-09T18:11:45Z</time>
      </trkpt>
      <trkpt lat="44.55415" lon="2.64842">
        <ele>551</ele>
        <time>2022-02-09T18:13:16Z</time>
      </trkpt>
      <trkpt lat="44.55403" lon="2.64869">
        <ele>549</ele>
        <time>2022-02-09T18:13:47Z</time>
      </trkpt>
      <trkpt lat="44.55441" lon="2.64888">
        <ele>549</ele>
        <time>2022-02-09T18:14:40Z</time>
      </trkpt>
      <trkpt lat="44.55495" lon="2.64947">
        <ele>546</ele>
        <time>2022-02-09T18:16:12Z</time>
      </trkpt>
      <trkpt lat="44.5553" lon="2.64973">
        <ele>542</ele>
        <time>2022-02-09T18:17:05Z</time>
      </trkpt>
      <trkpt lat="44.55549" lon="2.65014">
        <ele>538</ele>
        <time>2022-02-09T18:17:51Z</time>
      </trkpt>
      <trkpt lat="44.55566" lon="2.65033">
        <ele>535</ele>
        <time>2022-02-09T18:18:20Z</time>
      </trkpt>
      <trkpt lat="44.55584" lon="2.65087">
        <ele>530</ele>
        <time>2022-02-09T18:19:17Z</time>
      </trkpt>
      <trkpt lat="44.5559" lon="2.65148">
        <ele>528</ele>
        <time>2022-02-09T18:20:15Z</time>
      </trkpt>
      <trkpt lat="44.55586" lon="2.65179">
        <ele>527</ele>
        <time>2022-02-09T18:20:45Z</time>
      </trkpt>
      <trkpt lat="44.55619" lon="2.65226">
        <ele>521</ele>
        <time>2022-02-09T18:21:48Z</time>
      </trkpt>
      <trkpt lat="44.55637" lon="2.65242">
        <ele>519</ele>
        <time>2022-02-09T18:22:17Z</time>
      </trkpt>
      <trkpt lat="44.55657" lon="2.65277">
        <ele>518</ele>
        <time>2022-02-09T18:22:59Z</time>
      </trkpt>
      <trkpt lat="44.55689" lon="2.65303">
        <ele>516</ele>
        <time>2022-02-09T18:23:49Z</time>
      </trkpt>
      <trkpt lat="44.557" lon="2.6532">
        <ele>515</ele>
        <time>2022-02-09T18:24:10Z</time>
      </trkpt>
      <trkpt lat="44.55772" lon="2.65417">
        <ele>508</ele>
        <time>2022-02-09T18:26:24Z</time>
      </trkpt>
      <trkpt lat="44.55843" lon="2.65522">
        <ele>497</ele>
        <time>2022-02-09T18:28:41Z</time>
      </trkpt>
      <trkpt lat="44.55864" lon="2.65532">
        <ele>492</ele>
        <time>2022-02-09T18:29:11Z</time>
      </trkpt>
      <trkpt lat="44.55885" lon="2.65539">
        <ele>488</ele>
        <time>2022-02-09T18:29:40Z</time>
      </trkpt>
      <trkpt lat="44.55907" lon="2.65524">
        <ele>488</ele>
        <time>2022-02-09T18:30:12Z</time>
      </trkpt>
      <trkpt lat="44.55925" lon="2.65508">
        <ele>488</ele>
        <time>2022-02-09T18:30:41Z</time>
      </trkpt>
      <trkpt lat="44.55947" lon="2.65499">
        <ele>485</ele>
        <time>2022-02-09T18:31:11Z</time>
      </trkpt>
      <trkpt lat="44.55958" lon="2.65486">
        <ele>479</ele>
        <time>2022-02-09T18:31:30Z</time>
      </trkpt>
      <trkpt lat="44.55935" lon="2.65464">
        <ele>482</ele>
        <time>2022-02-09T18:32:08Z</time>
      </trkpt>
      <trkpt lat="44.55891" lon="2.65427">
        <ele>488</ele>
        <time>2022-02-09T18:33:16Z</time>
      </trkpt>
      <trkpt lat="44.55851" lon="2.65371">
        <ele>492</ele>
        <time>2022-02-09T18:34:31Z</time>
      </trkpt>
      <trkpt lat="44.5584" lon="2.6534">
        <ele>492</ele>
        <time>2022-02-09T18:35:04Z</time>
      </trkpt>
      <trkpt lat="44.55859" lon="2.65331">
        <ele>488</ele>
        <time>2022-02-09T18:35:31Z</time>
      </trkpt>
      <trkpt lat="44.5589" lon="2.65341">
        <ele>481</ele>
        <time>2022-02-09T18:36:14Z</time>
      </trkpt>
      <trkpt lat="44.55939" lon="2.65297">
        <ele>478</ele>
        <time>2022-02-09T18:37:31Z</time>
      </trkpt>
      <trkpt lat="44.55968" lon="2.65283">
        <ele>473</ele>
        <time>2022-02-09T18:38:12Z</time>
      </trkpt>
      <trkpt lat="44.56007" lon="2.65285">
        <ele>461</ele>
        <time>2022-02-09T18:39:04Z</time>
      </trkpt>
      <trkpt lat="44.56068" lon="2.65229">
        <ele>452</ele>
        <time>2022-02-09T18:40:41Z</time>
      </trkpt>
      <trkpt lat="44.56115" lon="2.65206">
        <ele>441</ele>
        <time>2022-02-09T18:41:48Z</time>
      </trkpt>
      <trkpt lat="44.56136" lon="2.65196">
        <ele>435</ele>
        <time>2022-02-09T18:42:18Z</time>
      </trkpt>
      <trkpt lat="44.56121" lon="2.65224">
        <ele>434</ele>
        <time>2022-02-09T18:42:51Z</time>
      </trkpt>
      <trkpt lat="44.56089" lon="2.65248">
        <ele>440</ele>
        <time>2022-02-09T18:43:39Z</time>
      </trkpt>
      <trkpt lat="44.5607" lon="2.65282">
        <ele>438</ele>
        <time>2022-02-09T18:44:20Z</time>
      </trkpt>
      <trkpt lat="44.56048" lon="2.65304">
        <ele>440</ele>
        <time>2022-02-09T18:44:56Z</time>
      </trkpt>
      <trkpt lat="44.56029" lon="2.65317">
        <ele>444</ele>
        <time>2022-02-09T18:45:25Z</time>
      </trkpt>
      <trkpt lat="44.56001" lon="2.65338">
        <ele>450</ele>
        <time>2022-02-09T18:46:07Z</time>
      </trkpt>
      <trkpt lat="44.55998" lon="2.65353">
        <ele>451</ele>
        <time>2022-02-09T18:46:22Z</time>
      </trkpt>
      <trkpt lat="44.56068" lon="2.65315">
        <ele>430</ele>
        <time>2022-02-09T18:48:02Z</time>
      </trkpt>
      <trkpt lat="44.56113" lon="2.65279">
        <ele>424</ele>
        <time>2022-02-09T18:49:11Z</time>
      </trkpt>
      <trkpt lat="44.56151" lon="2.65279">
        <ele>411</ele>
        <time>2022-02-09T18:50:02Z</time>
      </trkpt>
      <trkpt lat="44.56167" lon="2.65269">
        <ele>408</ele>
        <time>2022-02-09T18:50:25Z</time>
      </trkpt>
      <trkpt lat="44.56218" lon="2.65209">
        <ele>395</ele>
        <time>2022-02-09T18:51:54Z</time>
      </trkpt>
      <trkpt lat="44.56209" lon="2.65133">
        <ele>401</ele>
        <time>2022-02-09T18:53:07Z</time>
      </trkpt>
      <trkpt lat="44.56196" lon="2.65082">
        <ele>404</ele>
        <time>2022-02-09T18:53:59Z</time>
      </trkpt>
      <trkpt lat="44.56194" lon="2.65046">
        <ele>401</ele>
        <time>2022-02-09T18:54:33Z</time>
      </trkpt>
      <trkpt lat="44.56178" lon="2.64985">
        <ele>402</ele>
        <time>2022-02-09T18:55:35Z</time>
      </trkpt>
      <trkpt lat="44.5618" lon="2.64962">
        <ele>399</ele>
        <time>2022-02-09T18:55:57Z</time>
      </trkpt>
      <trkpt lat="44.56202" lon="2.65038">
        <ele>396</ele>
        <time>2022-02-09T18:57:15Z</time>
      </trkpt>
      <trkpt lat="44.56244" lon="2.65111">
        <ele>381</ele>
        <time>2022-02-09T18:58:44Z</time>
      </trkpt>
      <trkpt lat="44.56264" lon="2.65173">
        <ele>373</ele>
        <time>2022-02-09T18:59:49Z</time>
      </trkpt>
      <trkpt lat="44.56274" lon="2.65227">
        <ele>368</ele>
        <time>2022-02-09T19:00:42Z</time>
      </trkpt>
      <trkpt lat="44.56263" lon="2.65263">
        <ele>371</ele>
        <time>2022-02-09T19:01:19Z</time>
      </trkpt>
      <trkpt lat="44.56236" lon="2.65306">
        <ele>375</ele>
        <time>2022-02-09T19:02:14Z</time>
      </trkpt>
      <trkpt lat="44.56203" lon="2.65345">
        <ele>382</ele>
        <time>2022-02-09T19:03:11Z</time>
      </trkpt>
      <trkpt lat="44.56202" lon="2.65361">
        <ele>384</ele>
        <time>2022-02-09T19:03:26Z</time>
      </trkpt>
      <trkpt lat="44.56208" lon="2.65369">
        <ele>383</ele>
        <time>2022-02-09T19:03:37Z</time>
      </trkpt>
      <trkpt lat="44.56267" lon="2.65368">
        <ele>368</ele>
        <time>2022-02-09T19:04:56Z</time>
      </trkpt>
      <trkpt lat="44.56329" lon="2.65343">
        <ele>349</ele>
        <time>2022-02-09T19:06:22Z</time>
      </trkpt>
      <trkpt lat="44.56363" lon="2.65336">
        <ele>339</ele>
        <time>2022-02-09T19:07:08Z</time>
      </trkpt>
      <trkpt lat="44.56416" lon="2.65365">
        <ele>330</ele>
        <time>2022-02-09T19:08:24Z</time>
      </trkpt>
      <trkpt lat="44.56427" lon="2.65383">
        <ele>330</ele>
        <time>2022-02-09T19:08:47Z</time>
      </trkpt>
      <trkpt lat="44.5642" lon="2.65405">
        <ele>334</ele>
        <time>2022-02-09T19:09:09Z</time>
      </trkpt>
      <trkpt lat="44.56415" lon="2.65447">
        <ele>336</ele>
        <time>2022-02-09T19:09:50Z</time>
      </trkpt>
      <trkpt lat="44.56397" lon="2.6548">
        <ele>342</ele>
        <time>2022-02-09T19:10:29Z</time>
      </trkpt>
      <trkpt lat="44.5637" lon="2.65506">
        <ele>353</ele>
        <time>2022-02-09T19:11:13Z</time>
      </trkpt>
      <trkpt lat="44.56361" lon="2.65529">
        <ele>356</ele>
        <time>2022-02-09T19:11:38Z</time>
      </trkpt>
      <trkpt lat="44.56369" lon="2.65594">
        <ele>348</ele>
        <time>2022-02-09T19:12:41Z</time>
      </trkpt>
      <trkpt lat="44.56364" lon="2.6565">
        <ele>346</ele>
        <time>2022-02-09T19:13:34Z</time>
      </trkpt>
      <trkpt lat="44.56376" lon="2.65713">
        <ele>336</ele>
        <time>2022-02-09T19:14:36Z</time>
      </trkpt>
      <trkpt lat="44.56382" lon="2.65757">
        <ele>331</ele>
        <time>2022-02-09T19:15:19Z</time>
      </trkpt>
      <trkpt lat="44.56391" lon="2.65817">
        <ele>327</ele>
        <time>2022-02-09T19:16:17Z</time>
      </trkpt>
      <trkpt lat="44.56411" lon="2.65849">
        <ele>327</ele>
        <time>2022-02-09T19:16:58Z</time>
      </trkpt>
      <trkpt lat="44.56424" lon="2.6588">
        <ele>328</ele>
        <time>2022-02-09T19:17:32Z</time>
      </trkpt>
      <trkpt lat="44.56358" lon="2.6589">
        <ele>324</ele>
        <time>2022-02-09T19:19:01Z</time>
      </trkpt>
      <trkpt lat="44.56286" lon="2.65907">
        <ele>322</ele>
        <time>2022-02-09T19:20:38Z</time>
      </trkpt>
      <trkpt lat="44.56173" lon="2.65919">
        <ele>322</ele>
        <time>2022-02-09T19:23:09Z</time>
      </trkpt>
      <trkpt lat="44.56151" lon="2.65924">
        <ele>323</ele>
        <time>2022-02-09T19:23:39Z</time>
      </trkpt>
      <trkpt lat="44.55984" lon="2.66018">
        <ele>323</ele>
        <time>2022-02-09T19:27:39Z</time>
      </trkpt>
      <trkpt lat="44.55798" lon="2.66091">
        <ele>327</ele>
        <time>2022-02-09T19:31:57Z</time>
      </trkpt>
      <trkpt lat="44.55631" lon="2.6615">
        <ele>333</ele>
        <time>2022-02-09T19:35:47Z</time>
      </trkpt>
      <trkpt lat="44.55579" lon="2.66167">
        <ele>334</ele>
        <time>2022-02-09T19:36:58Z</time>
      </trkpt>
      <trkpt lat="44.55524" lon="2.66205">
        <ele>335</ele>
        <time>2022-02-09T19:38:20Z</time>
      </trkpt>
      <trkpt lat="44.55476" lon="2.66244">
        <ele>328</ele>
        <time>2022-02-09T19:39:34Z</time>
      </trkpt>
      <trkpt lat="44.55424" lon="2.66258">
        <ele>325</ele>
        <time>2022-02-09T19:40:44Z</time>
      </trkpt>
      <trkpt lat="44.55303" lon="2.66368">
        <ele>326</ele>
        <time>2022-02-09T19:43:57Z</time>
      </trkpt>
      <trkpt lat="44.5522" lon="2.66433">
        <ele>325</ele>
        <time>2022-02-09T19:46:04Z</time>
      </trkpt>
      <trkpt lat="44.55185" lon="2.66472">
        <ele>322</ele>
        <time>2022-02-09T19:47:03Z</time>
      </trkpt>
      <trkpt lat="44.55168" lon="2.66488">
        <ele>320</ele>
        <time>2022-02-09T19:47:31Z</time>
      </trkpt>
      <trkpt lat="44.55157" lon="2.66501">
        <ele>319</ele>
        <time>2022-02-09T19:47:50Z</time>
      </trkpt>
      <trkpt lat="44.55089" lon="2.66516">
        <ele>327</ele>
        <time>2022-02-09T19:49:22Z</time>
      </trkpt>
      <trkpt lat="44.55033" lon="2.66542">
        <ele>332</ele>
        <time>2022-02-09T19:50:40Z</time>
      </trkpt>
      <trkpt lat="44.54993" lon="2.66578">
        <ele>327</ele>
        <time>2022-02-09T19:51:44Z</time>
      </trkpt>
      <trkpt lat="44.54955" lon="2.66601">
        <ele>328</ele>
        <time>2022-02-09T19:52:39Z</time>
      </trkpt>
      <trkpt lat="44.54914" lon="2.66617">
        <ele>328</ele>
        <time>2022-02-09T19:53:36Z</time>
      </trkpt>
      <trkpt lat="44.54849" lon="2.66603">
        <ele>329</ele>
        <time>2022-02-09T19:55:04Z</time>
      </trkpt>
      <trkpt lat="44.54792" lon="2.66596">
        <ele>334</ele>
        <time>2022-02-09T19:56:20Z</time>
      </trkpt>
      <trkpt lat="44.54748" lon="2.66607">
        <ele>336</ele>
        <time>2022-02-09T19:57:20Z</time>
      </trkpt>
      <trkpt lat="44.54724" lon="2.66631">
        <ele>337</ele>
        <time>2022-02-09T19:57:59Z</time>
      </trkpt>
      <trkpt lat="44.54699" lon="2.66694">
        <ele>335</ele>
        <time>2022-02-09T19:59:07Z</time>
      </trkpt>
      <trkpt lat="44.54687" lon="2.66731">
        <ele>337</ele>
        <time>2022-02-09T19:59:46Z</time>
      </trkpt>
      <trkpt lat="44.54684" lon="2.66777">
        <ele>340</ele>
        <time>2022-02-09T20:00:30Z</time>
      </trkpt>
      <trkpt lat="44.54698" lon="2.6683">
        <ele>342</ele>
        <time>2022-02-09T20:01:24Z</time>
      </trkpt>
      <trkpt lat="44.54706" lon="2.66902">
        <ele>345</ele>
        <time>2022-02-09T20:02:33Z</time>
      </trkpt>
      <trkpt lat="44.54709" lon="2.66949">
        <ele>345</ele>
        <time>2022-02-09T20:03:18Z</time>
      </trkpt>
      <trkpt lat="44.54704" lon="2.67051">
        <ele>350</ele>
        <time>2022-02-09T20:04:55Z</time>
      </trkpt>
      <trkpt lat="44.54713" lon="2.67089">
        <ele>349</ele>
        <time>2022-02-09T20:05:33Z</time>
      </trkpt>
      <trkpt lat="44.54778" lon="2.67168">
        <ele>338</ele>
        <time>2022-02-09T20:07:28Z</time>
      </trkpt>
      <trkpt lat="44.54806" lon="2.6719">
        <ele>342</ele>
        <time>2022-02-09T20:08:11Z</time>
      </trkpt>
      <trkpt lat="44.54858" lon="2.67189">
        <ele>340</ele>
        <time>2022-02-09T20:09:20Z</time>
      </trkpt>
      <trkpt lat="44.54908" lon="2.67175">
        <ele>339</ele>
        <time>2022-02-09T20:10:28Z</time>
      </trkpt>
      <trkpt lat="44.54974" lon="2.67123">
        <ele>331</ele>
        <time>2022-02-09T20:12:09Z</time>
      </trkpt>
      <trkpt lat="44.54993" lon="2.67118">
        <ele>330</ele>
        <time>2022-02-09T20:12:35Z</time>
      </trkpt>
      <trkpt lat="44.5505" lon="2.67145">
        <ele>330</ele>
        <time>2022-02-09T20:13:55Z</time>
      </trkpt>
      <trkpt lat="44.55087" lon="2.67137">
        <ele>324</ele>
        <time>2022-02-09T20:14:45Z</time>
      </trkpt>
      <trkpt lat="44.55137" lon="2.67127">
        <ele>320</ele>
        <time>2022-02-09T20:15:53Z</time>
      </trkpt>
      <trkpt lat="44.55196" lon="2.67158">
        <ele>318</ele>
        <time>2022-02-09T20:17:17Z</time>
      </trkpt>
      <trkpt lat="44.55209" lon="2.67184">
        <ele>319</ele>
        <time>2022-02-09T20:17:47Z</time>
      </trkpt>
      <trkpt lat="44.55216" lon="2.67209">
        <ele>320</ele>
        <time>2022-02-09T20:18:13Z</time>
      </trkpt>
      <trkpt lat="44.55244" lon="2.67209">
        <ele>316</ele>
        <time>2022-02-09T20:18:50Z</time>
      </trkpt>
      <trkpt lat="44.55347" lon="2.67184">
        <ele>318</ele>
        <time>2022-02-09T20:21:09Z</time>
      </trkpt>
    </trkseg>
  </trk>
</gpx>